Time;durP1;ratioP1;P1;durP2;ratioP2;P2;SDS_P1;SDS_P2;PMS_P1;PMS_P2;Temp;Humidity;BMP_temperature;BMP_pressure;BME280_temperature;BME280_humidity;BME280_pressure;Samples;Min_cycle;Max_cycle;Signal;HPM_P1;HPM_P2
2022/04/13 00:01:13;;;;;;;8.90;2.75;;;12.40;99.90;;;;;;4916492;29;20469;-80
2022/04/13 00:03:38;;;;;;;17.80;2.83;;;12.40;99.90;;;;;;4916132;29;20059;-79
2022/04/13 00:06:04;;;;;;;12.70;3.10;;;12.40;99.90;;;;;;4916531;29;20048;-79
2022/04/13 00:08:31;;;;;;;19.50;3.63;;;12.40;99.90;;;;;;4916460;29;20477;-79
2022/04/13 00:10:56;;;;;;;14.48;2.75;;;12.40;99.90;;;;;;4916202;29;20023;-79
2022/04/13 00:13:22;;;;;;;22.48;4.00;;;12.30;99.90;;;;;;4916136;29;20032;-79
2022/04/13 00:15:48;;;;;;;22.80;4.15;;;12.40;99.90;;;;;;4916114;29;20056;-79
2022/04/13 00:18:14;;;;;;;22.17;3.90;;;12.30;99.90;;;;;;4916237;29;20079;-79
2022/04/13 00:20:40;;;;;;;25.27;3.80;;;12.30;99.90;;;;;;4916497;29;20059;-79
2022/04/13 00:23:07;;;;;;;30.02;4.25;;;12.30;99.90;;;;;;4916319;29;20072;-79
2022/04/13 00:25:33;;;;;;;23.88;4.82;;;12.30;99.90;;;;;;4916289;29;20028;-79
2022/04/13 00:27:59;;;;;;;25.50;3.97;;;12.30;99.90;;;;;;4915994;29;20587;-79
2022/04/13 00:30:25;;;;;;;23.65;5.47;;;12.20;99.90;;;;;;4915672;29;20533;-78
2022/04/13 00:32:51;;;;;;;23.42;4.72;;;12.20;99.90;;;;;;4915911;29;20039;-79
2022/04/13 00:35:17;;;;;;;24.45;3.30;;;12.20;99.90;;;;;;4917586;29;20024;-80
2022/04/13 00:37:43;;;;;;;21.05;4.45;;;12.20;99.90;;;;;;4919954;29;20495;-79
2022/04/13 00:40:09;;;;;;;20.92;4.13;;;12.20;99.90;;;;;;4919619;29;20028;-79
2022/04/13 00:42:35;;;;;;;28.55;4.32;;;12.20;99.90;;;;;;4920054;29;20028;-79
2022/04/13 00:45:01;;;;;;;30.70;5.47;;;12.10;99.90;;;;;;4919441;29;20031;-79
2022/04/13 00:47:26;;;;;;;27.85;5.13;;;12.20;99.90;;;;;;4920085;29;20159;-79
2022/04/13 00:49:54;;;;;;;27.88;4.40;;;12.20;99.90;;;;;;4919607;29;20028;-79
2022/04/13 00:52:23;;;;;;;26.30;4.63;;;12.20;99.90;;;;;;4919563;29;20020;-79
2022/04/13 00:54:50;;;;;;;19.08;4.00;;;12.20;99.90;;;;;;4918996;29;20032;-79
2022/04/13 00:57:18;;;;;;;18.20;3.50;;;12.10;99.90;;;;;;4902508;29;20035;-79
2022/04/13 00:59:47;;;;;;;21.48;3.22;;;12.10;99.90;;;;;;4919741;29;20129;-79
2022/04/13 01:02:13;;;;;;;20.58;3.65;;;12.20;99.90;;;;;;4919636;29;20552;-79
2022/04/13 01:04:40;;;;;;;18.15;3.83;;;12.10;99.90;;;;;;4919188;29;20052;-79
2022/04/13 01:07:09;;;;;;;17.38;3.85;;;12.10;99.90;;;;;;4919478;29;20425;-79
2022/04/13 01:09:40;;;;;;;25.05;4.20;;;12.10;99.90;;;;;;4918913;29;20060;-79
2022/04/13 01:12:07;;;;;;;23.77;4.50;;;12.20;99.90;;;;;;4919313;29;20044;-79
2022/04/13 01:14:34;;;;;;;16.00;3.22;;;12.10;99.90;;;;;;4919354;29;20047;-79
2022/04/13 01:17:00;;;;;;;16.45;2.80;;;12.20;99.90;;;;;;4918863;29;20028;-79
2022/04/13 01:19:27;;;;;;;21.05;3.72;;;12.10;99.90;;;;;;4919321;29;20119;-79
2022/04/13 01:21:53;;;;;;;14.25;2.67;;;12.10;99.90;;;;;;4918698;29;20032;-79
2022/04/13 01:24:20;;;;;;;23.83;4.13;;;12.10;99.90;;;;;;4918911;29;20028;-79
2022/04/13 01:26:47;;;;;;;17.38;2.67;;;12.10;99.90;;;;;;4918989;29;20125;-79
2022/04/13 01:29:12;;;;;;;16.95;3.22;;;12.10;99.90;;;;;;4917949;29;20043;-79
2022/04/13 01:31:39;;;;;;;15.45;3.55;;;12.10;99.90;;;;;;4917781;29;20087;-79
2022/04/13 01:34:06;;;;;;;15.13;3.25;;;12.10;99.90;;;;;;4918765;29;20024;-79
2022/04/13 01:36:33;;;;;;;22.85;2.95;;;12.10;99.90;;;;;;4901315;29;20042;-79
2022/04/13 01:38:59;;;;;;;18.42;2.83;;;12.10;99.90;;;;;;4918614;29;20048;-79
2022/04/13 01:41:25;;;;;;;19.23;3.60;;;12.10;99.90;;;;;;4918894;29;20512;-79
2022/04/13 01:43:51;;;;;;;22.40;4.05;;;12.10;99.90;;;;;;4918512;29;20031;-79
2022/04/13 01:46:16;;;;;;;14.98;3.20;;;12.10;99.90;;;;;;4918624;29;20535;-79
2022/04/13 01:48:42;;;;;;;16.73;3.35;;;12.10;99.90;;;;;;4918810;29;20567;-79
2022/04/13 01:51:08;;;;;;;28.02;3.78;;;12.10;99.90;;;;;;4918369;29;20042;-79
2022/04/13 01:53:35;;;;;;;16.63;3.88;;;12.10;99.90;;;;;;4918454;29;20025;-79
2022/04/13 01:56:01;;;;;;;19.52;3.85;;;12.10;99.90;;;;;;4918500;29;20035;-79
2022/04/13 01:58:26;;;;;;;13.93;3.40;;;12.10;99.90;;;;;;4918510;29;20024;-79
2022/04/13 02:00:54;;;;;;;23.05;3.85;;;12.10;99.90;;;;;;4918392;29;20111;-79
2022/04/13 02:03:30;;;;;;;21.95;3.75;;;12.20;99.90;;;;;;4918606;29;20024;-79
2022/04/13 02:05:56;;;;;;;23.02;4.72;;;12.10;99.90;;;;;;4917999;29;20024;-79
2022/04/13 02:08:22;;;;;;;17.00;2.88;;;12.10;99.90;;;;;;4918041;29;20523;-79
2022/04/13 02:10:49;;;;;;;18.17;2.70;;;12.10;99.90;;;;;;4901132;29;20039;-79
2022/04/13 02:13:14;;;;;;;18.00;3.00;;;12.10;99.90;;;;;;4917860;29;20035;-79
2022/04/13 02:15:41;;;;;;;18.27;3.10;;;12.10;99.90;;;;;;4918173;29;20032;-79
2022/04/13 02:18:06;;;;;;;19.95;3.15;;;12.10;99.90;;;;;;4918153;29;20024;-79
2022/04/13 02:20:32;;;;;;;15.98;2.85;;;12.10;99.90;;;;;;4918310;29;20043;-79
2022/04/13 02:22:58;;;;;;;17.10;3.70;;;12.10;99.90;;;;;;4917698;29;20056;-79
2022/04/13 02:25:24;;;;;;;15.77;3.30;;;12.10;99.90;;;;;;4917840;29;20527;-79
2022/04/13 02:27:50;;;;;;;17.20;2.75;;;12.20;99.90;;;;;;4917960;29;20504;-79
2022/04/13 02:30:16;;;;;;;14.73;2.97;;;12.20;99.90;;;;;;4916656;29;20039;-79
2022/04/13 02:32:46;;;;;;;17.80;3.92;;;12.10;99.90;;;;;;4917951;29;20036;-79
2022/04/13 02:35:13;;;;;;;18.42;4.05;;;12.10;99.90;;;;;;4917765;29;20017;-79
2022/04/13 02:37:39;;;;;;;15.25;2.55;;;12.20;99.90;;;;;;4917648;29;20040;-79
2022/04/13 02:40:07;;;;;;;16.30;3.22;;;12.10;99.90;;;;;;4917567;29;20047;-79
2022/04/13 02:42:33;;;;;;;21.90;2.88;;;12.20;99.90;;;;;;4917874;29;20050;-79
2022/04/13 02:45:00;;;;;;;8.57;2.08;;;12.20;99.90;;;;;;4900182;29;20032;-79
2022/04/13 02:47:26;;;;;;;16.23;3.38;;;12.20;99.90;;;;;;4917631;29;20047;-79
2022/04/13 02:49:52;;;;;;;12.38;2.20;;;12.10;99.90;;;;;;4917711;29;20505;-79
2022/04/13 02:52:18;;;;;;;14.65;2.35;;;12.10;99.90;;;;;;4915665;29;20107;-79
2022/04/13 02:54:43;;;;;;;17.35;2.67;;;12.10;99.90;;;;;;4917586;29;20032;-79
2022/04/13 02:57:09;;;;;;;12.43;2.78;;;12.10;99.90;;;;;;4917340;29;20036;-79
2022/04/13 02:59:35;;;;;;;14.00;2.25;;;12.10;99.90;;;;;;4916520;29;20040;-79
2022/04/13 03:02:00;;;;;;;18.48;2.88;;;12.10;99.90;;;;;;4917349;29;20493;-79
2022/04/13 03:04:26;;;;;;;13.05;2.80;;;12.10;99.90;;;;;;4915318;29;20103;-79
2022/04/13 03:06:52;;;;;;;13.18;2.55;;;12.10;99.90;;;;;;4915722;29;20064;-79
2022/04/13 03:09:18;;;;;;;14.32;2.97;;;12.10;99.90;;;;;;4916522;29;20024;-79
2022/04/13 03:11:43;;;;;;;13.85;2.60;;;12.10;99.90;;;;;;4917196;29;20024;-79
2022/04/13 03:14:09;;;;;;;13.00;2.85;;;12.10;99.90;;;;;;4917213;29;20028;-79
2022/04/13 03:16:35;;;;;;;11.80;2.53;;;12.10;99.90;;;;;;4899667;29;20047;-79
2022/04/13 03:19:01;;;;;;;14.65;2.42;;;12.10;99.90;;;;;;4917010;29;20060;-79
2022/04/13 03:21:27;;;;;;;15.63;2.72;;;12.10;99.90;;;;;;4916686;29;20111;-79
2022/04/13 03:23:53;;;;;;;12.13;2.53;;;12.00;99.90;;;;;;4916979;29;20028;-79
2022/04/13 03:26:18;;;;;;;13.35;2.58;;;12.10;99.90;;;;;;4899434;29;20028;-79
2022/04/13 03:28:44;;;;;;;13.50;2.67;;;12.10;99.90;;;;;;4916843;29;20037;-79
2022/04/13 03:31:10;;;;;;;16.90;3.28;;;12.10;99.90;;;;;;4916278;29;20056;-79
2022/04/13 03:33:35;;;;;;;8.23;2.05;;;12.10;99.90;;;;;;4917078;29;20039;-79
2022/04/13 03:36:01;;;;;;;16.38;2.85;;;12.10;99.90;;;;;;4916575;29;20032;-79
2022/04/13 03:38:27;;;;;;;12.93;2.70;;;12.10;99.90;;;;;;4916796;29;20066;-79
2022/04/13 03:40:52;;;;;;;12.00;2.42;;;12.10;99.90;;;;;;4916387;29;20119;-79
2022/04/13 03:43:18;;;;;;;11.40;2.25;;;12.00;99.90;;;;;;4916490;29;20024;-79
2022/04/13 03:45:44;;;;;;;24.75;3.75;;;12.00;99.90;;;;;;4916606;29;20028;-79
2022/04/13 03:48:10;;;;;;;9.77;2.13;;;12.00;99.90;;;;;;4916379;29;20036;-79
2022/04/13 03:50:36;;;;;;;10.38;2.15;;;12.00;99.90;;;;;;4916621;29;20028;-79
2022/04/13 03:53:01;;;;;;;9.30;2.22;;;12.10;99.90;;;;;;4916059;29;20024;-79
2022/04/13 03:55:27;;;;;;;12.23;2.20;;;12.10;99.90;;;;;;4916284;29;20036;-79
2022/04/13 03:57:53;;;;;;;10.13;2.10;;;12.10;99.90;;;;;;4916595;29;20039;-79
2022/04/13 04:00:18;;;;;;;12.60;2.10;;;12.10;99.90;;;;;;4916325;29;20111;-79
2022/04/13 04:02:44;;;;;;;13.48;3.65;;;12.10;99.90;;;;;;4916795;29;20483;-78
2022/04/13 04:05:13;;;;;;;15.20;2.15;;;12.00;99.90;;;;;;4915877;29;20024;-78
2022/04/13 04:07:39;;;;;;;10.02;2.40;;;12.00;99.90;;;;;;4916205;29;20035;-78
2022/04/13 04:10:06;;;;;;;16.20;2.65;;;12.00;99.90;;;;;;4917617;29;20031;-78
2022/04/13 04:12:39;;;;;;;10.68;1.98;;;12.00;99.90;;;;;;4920466;29;20024;-81
2022/04/13 04:15:05;;;;;;;10.88;2.65;;;12.00;99.90;;;;;;4903260;29;20519;-79
2022/04/13 04:17:31;;;;;;;11.05;1.88;;;12.00;99.90;;;;;;4919844;29;20513;-80
2022/04/13 04:19:57;;;;;;;11.75;2.47;;;12.00;99.90;;;;;;4903049;29;20068;-80
2022/04/13 04:22:26;;;;;;;12.48;2.35;;;12.00;99.90;;;;;;4920021;29;20054;-80
2022/04/13 04:24:51;;;;;;;9.60;2.25;;;12.00;99.90;;;;;;4903095;29;20028;-80
2022/04/13 04:27:17;;;;;;;6.82;2.50;;;12.00;99.90;;;;;;4920020;29;20159;-79
2022/04/13 04:29:43;;;;;;;7.30;1.88;;;12.00;99.90;;;;;;4919835;29;20036;-77
2022/04/13 04:32:08;;;;;;;11.38;2.22;;;12.00;99.90;;;;;;4919229;29;20532;-77
2022/04/13 04:34:34;;;;;;;8.80;2.85;;;11.90;99.90;;;;;;4920069;29;20119;-77
2022/04/13 04:37:00;;;;;;;12.63;2.40;;;11.90;99.90;;;;;;4919913;29;20055;-77
2022/04/13 04:39:26;;;;;;;10.93;2.63;;;12.00;99.90;;;;;;4919743;29;20032;-77
2022/04/13 04:41:52;;;;;;;13.57;2.33;;;11.90;99.90;;;;;;4919834;29;20107;-77
2022/04/13 04:44:18;;;;;;;12.95;2.28;;;11.90;99.90;;;;;;4919475;29;20028;-77
2022/04/13 04:46:43;;;;;;;11.98;1.98;;;11.90;99.90;;;;;;4919209;29;20067;-77
2022/04/13 04:49:09;;;;;;;10.98;2.40;;;11.90;99.90;;;;;;4919438;29;20032;-77
2022/04/13 04:51:35;;;;;;;7.32;1.85;;;11.90;99.90;;;;;;4919663;29;20393;-75
2022/04/13 04:54:01;;;;;;;10.18;2.00;;;11.90;99.90;;;;;;4919987;29;20039;-77
2022/04/13 04:56:28;;;;;;;7.28;1.90;;;11.90;99.90;;;;;;4919288;29;20661;-77
2022/04/13 04:58:53;;;;;;;10.73;2.80;;;11.90;99.90;;;;;;4919024;29;20492;-77
2022/04/13 05:01:21;;;;;;;7.43;2.00;;;11.90;99.90;;;;;;4919015;29;20420;-77
2022/04/13 05:03:50;;;;;;;11.25;1.88;;;11.90;99.90;;;;;;4919257;29;20032;-77
2022/04/13 05:06:23;;;;;;;13.88;2.10;;;11.90;99.90;;;;;;4919284;29;20099;-77
2022/04/13 05:08:49;;;;;;;13.07;2.67;;;11.90;99.90;;;;;;4919493;29;20031;-77
2022/04/13 05:11:16;;;;;;;11.50;2.58;;;11.90;99.90;;;;;;4918973;29;20115;-77
2022/04/13 05:13:42;;;;;;;11.63;2.40;;;11.90;99.90;;;;;;4919027;29;20028;-77
2022/04/13 05:16:07;;;;;;;13.38;2.10;;;11.90;99.90;;;;;;4901750;29;20389;-78
2022/04/13 05:18:33;;;;;;;13.55;2.35;;;11.90;99.90;;;;;;4919191;29;20103;-77
2022/04/13 05:20:59;;;;;;;12.43;2.60;;;11.90;99.90;;;;;;4918693;29;20036;-77
2022/04/13 05:23:25;;;;;;;14.90;2.60;;;11.90;99.90;;;;;;4918363;29;20047;-77
2022/04/13 05:25:51;;;;;;;11.60;2.58;;;11.90;99.90;;;;;;4919385;29;20460;-77
2022/04/13 05:28:17;;;;;;;11.55;2.75;;;11.90;99.90;;;;;;4919253;29;20099;-78
2022/04/13 05:30:43;;;;;;;16.08;3.33;;;11.90;99.90;;;;;;4918477;29;20044;-77
2022/04/13 05:33:09;;;;;;;18.05;2.72;;;11.90;99.90;;;;;;4901195;29;20373;-78
2022/04/13 05:35:35;;;;;;;12.52;2.88;;;11.90;99.90;;;;;;4918068;29;20044;-78
2022/04/13 05:38:02;;;;;;;15.68;3.03;;;11.90;99.90;;;;;;4919239;29;20043;-77
2022/04/13 05:40:28;;;;;;;24.23;3.25;;;11.90;99.90;;;;;;4901781;29;20510;-78
2022/04/13 05:42:53;;;;;;;14.82;2.92;;;11.90;99.90;;;;;;4918964;29;20028;-77
2022/04/13 05:45:19;;;;;;;16.95;3.92;;;11.90;99.90;;;;;;4917784;29;20076;-78
2022/04/13 05:47:45;;;;;;;19.83;3.88;;;11.90;99.90;;;;;;4918418;29;20040;-77
2022/04/13 05:50:12;;;;;;;17.45;3.50;;;11.90;99.90;;;;;;4918600;29;20024;-77
2022/04/13 05:52:39;;;;;;;20.65;3.65;;;11.90;99.90;;;;;;4917523;29;20476;-75
2022/04/13 05:55:06;;;;;;;14.13;3.50;;;11.90;99.90;;;;;;4918410;29;20060;-77
2022/04/13 05:57:31;;;;;;;17.20;3.17;;;11.90;99.90;;;;;;4917876;29;20032;-77
2022/04/13 05:59:57;;;;;;;18.60;3.40;;;11.90;99.90;;;;;;4918206;29;20024;-77
2022/04/13 06:02:23;;;;;;;16.13;3.28;;;11.90;99.90;;;;;;4918390;29;20031;-78
2022/04/13 06:04:49;;;;;;;16.92;4.13;;;11.90;99.90;;;;;;4917274;29;20476;-77
2022/04/13 06:07:14;;;;;;;17.33;3.30;;;11.90;99.90;;;;;;4918302;29;20043;-77
2022/04/13 06:09:40;;;;;;;24.85;4.05;;;11.90;99.90;;;;;;4917626;29;20028;-77
2022/04/13 06:12:06;;;;;;;14.93;3.80;;;11.90;99.90;;;;;;4918525;29;20492;-77
2022/04/13 06:14:32;;;;;;;19.85;3.85;;;11.90;99.90;;;;;;4917773;29;20036;-78
2022/04/13 06:16:58;;;;;;;19.60;3.10;;;11.90;99.90;;;;;;4917787;29;20392;-77
2022/04/13 06:19:23;;;;;;;17.60;3.53;;;11.90;99.90;;;;;;4918349;29;20032;-78
2022/04/13 06:21:49;;;;;;;15.50;3.00;;;11.90;99.90;;;;;;4918001;29;20038;-78
2022/04/13 06:24:16;;;;;;;17.73;4.60;;;11.90;99.90;;;;;;4917090;29;20067;-77
2022/04/13 06:26:42;;;;;;;13.25;3.55;;;11.90;99.90;;;;;;4917522;29;20076;-78
2022/04/13 06:29:08;;;;;;;22.30;4.05;;;12.00;99.90;;;;;;4917800;29;20028;-77
2022/04/13 06:31:33;;;;;;;20.23;3.38;;;11.90;99.90;;;;;;4917496;29;20048;-77
2022/04/13 06:33:59;;;;;;;18.27;4.18;;;12.00;99.90;;;;;;4900534;29;20057;-78
2022/04/13 06:36:25;;;;;;;22.38;3.75;;;12.00;99.90;;;;;;4918163;29;20487;-77
2022/04/13 06:38:50;;;;;;;19.50;3.80;;;11.90;99.90;;;;;;4917742;29;20032;-77
2022/04/13 06:41:16;;;;;;;20.85;4.70;;;11.90;99.90;;;;;;4917765;29;20111;-77
2022/04/13 06:43:42;;;;;;;23.67;4.35;;;11.90;99.90;;;;;;4916879;29;20028;-77
2022/04/13 06:46:09;;;;;;;21.40;3.40;;;11.90;99.90;;;;;;4917626;29;20378;-77
2022/04/13 06:48:35;;;;;;;28.70;4.32;;;11.90;99.90;;;;;;4917653;29;20020;-78
2022/04/13 06:51:03;;;;;;;20.83;3.80;;;11.80;99.90;;;;;;4917557;29;20488;-75
2022/04/13 06:53:28;;;;;;;25.73;4.82;;;11.90;99.90;;;;;;4917580;29;20079;-78
2022/04/13 06:55:54;;;;;;;21.55;4.40;;;11.80;99.90;;;;;;4917709;29;20446;-77
2022/04/13 06:58:20;;;;;;;21.23;3.80;;;11.80;99.90;;;;;;4916997;29;20160;-77
2022/04/13 07:00:47;;;;;;;23.58;4.80;;;11.80;99.90;;;;;;4900275;29;20032;-77
2022/04/13 07:03:12;;;;;;;23.08;4.85;;;11.80;99.90;;;;;;4916190;29;20107;-77
2022/04/13 07:05:38;;;;;;;31.35;4.95;;;11.80;99.90;;;;;;4916782;29;20484;-77
2022/04/13 07:08:05;;;;;;;24.58;4.88;;;11.80;99.90;;;;;;4900353;29;20020;-77
2022/04/13 07:10:32;;;;;;;30.08;4.53;;;11.80;99.90;;;;;;4916835;29;20024;-78
2022/04/13 07:12:57;;;;;;;24.58;6.18;;;11.70;99.90;;;;;;4916502;29;20040;-77
2022/04/13 07:15:24;;;;;;;27.20;4.07;;;11.80;99.90;;;;;;4916904;29;20028;-77
2022/04/13 07:17:49;;;;;;;25.20;4.45;;;11.70;99.90;;;;;;4917013;29;20051;-77
2022/04/13 07:20:16;;;;;;;29.58;5.13;;;11.70;99.90;;;;;;4916974;29;20059;-77
2022/04/13 07:22:50;;;;;;;22.33;4.22;;;11.70;99.90;;;;;;4916452;29;20056;-77
2022/04/13 07:25:17;;;;;;;28.23;5.40;;;11.80;99.90;;;;;;4917378;29;20028;-77
2022/04/13 07:27:44;;;;;;;21.25;3.95;;;11.70;99.90;;;;;;4916846;29;20381;-77
2022/04/13 07:30:11;;;;;;;28.30;4.43;;;11.80;99.90;;;;;;4916482;29;20109;-77
2022/04/13 07:32:36;;;;;;;26.00;4.90;;;11.80;99.90;;;;;;4916820;29;20478;-77
2022/04/13 07:35:03;;;;;;;24.33;5.20;;;11.80;99.90;;;;;;4916251;29;20066;-77
2022/04/13 07:37:29;;;;;;;24.90;4.07;;;11.80;99.90;;;;;;4916158;29;20108;-82
2022/04/13 07:39:55;;;;;;;30.65;4.82;;;11.80;99.90;;;;;;4899825;29;20039;-83
2022/04/13 07:42:22;;;;;;;18.88;3.85;;;11.80;99.90;;;;;;4916312;29;20024;-82
2022/04/13 07:44:48;;;;;;;17.88;3.53;;;11.80;99.90;;;;;;4914994;29;20032;-81
2022/04/13 07:47:20;;;;;;;18.55;3.40;;;11.80;99.90;;;;;;4916435;29;20031;-80
2022/04/13 07:49:46;;;;;;;23.50;4.40;;;11.80;99.90;;;;;;4898394;29;20032;-79
2022/04/13 07:52:13;;;;;;;21.98;3.55;;;11.80;99.90;;;;;;4916226;29;20496;-81
2022/04/13 07:54:38;;;;;;;20.48;3.45;;;11.80;99.90;;;;;;4915708;29;20024;-80
2022/04/13 07:57:04;;;;;;;27.13;3.85;;;11.80;99.90;;;;;;4915577;29;20369;-80
2022/04/13 07:59:30;;;;;;;24.40;4.10;;;11.80;99.90;;;;;;4916011;29;20028;-80
2022/04/13 08:01:56;;;;;;;22.17;5.03;;;11.80;99.90;;;;;;4915477;29;20035;-80
2022/04/13 08:04:21;;;;;;;25.15;4.90;;;11.80;99.90;;;;;;4915974;29;20503;-80
2022/04/13 08:06:47;;;;;;;25.77;3.85;;;11.90;99.90;;;;;;4914892;29;20399;-80
2022/04/13 08:09:13;;;;;;;31.13;5.10;;;11.80;99.90;;;;;;4899319;29;20032;-83
2022/04/13 08:11:38;;;;;;;31.55;5.80;;;11.80;99.90;;;;;;4916802;29;20072;-82
2022/04/13 08:14:04;;;;;;;29.08;4.82;;;11.80;99.90;;;;;;4898802;29;20032;-86
2022/04/13 08:16:30;;;;;;;20.67;4.10;;;11.70;99.90;;;;;;4898333;29;20052;-84
2022/04/13 08:18:56;;;;;;;30.38;4.88;;;11.80;99.90;;;;;;4897961;29;20032;-84
2022/04/13 08:21:21;;;;;;;28.02;4.43;;;11.70;99.90;;;;;;4898414;29;20032;-84
2022/04/13 08:23:47;;;;;;;29.98;4.43;;;11.70;99.90;;;;;;4894998;29;20056;-83
2022/04/13 08:26:13;;;;;;;29.48;4.78;;;11.70;99.90;;;;;;4915105;29;20092;-84
2022/04/13 08:28:38;;;;;;;22.63;4.25;;;11.70;99.90;;;;;;4915311;29;20095;-84
2022/04/13 08:31:04;;;;;;;32.88;5.65;;;11.70;99.90;;;;;;4897290;29;20044;-83
2022/04/13 08:33:31;;;;;;;30.65;5.25;;;11.70;99.90;;;;;;4915852;29;20040;-84
2022/04/13 08:35:57;;;;;;;32.95;5.97;;;11.70;99.90;;;;;;4915327;29;20115;-81
2022/04/13 08:38:23;;;;;;;33.83;5.30;;;11.70;99.90;;;;;;4915501;29;20078;-86
2022/04/13 08:41:02;;;;;;;40.03;5.65;;;11.70;99.90;;;;;;4914306;29;20461;-84
2022/04/13 08:43:45;;;;;;;28.60;5.57;;;11.80;99.90;;;;;;4908691;29;20111;-84
2022/04/13 08:46:19;;;;;;;36.30;6.32;;;11.70;99.90;;;;;;4914812;29;20048;-83
2022/04/13 08:48:47;;;;;;;31.23;5.72;;;11.70;99.90;;;;;;4914999;29;20036;-84
2022/04/13 08:51:16;;;;;;;34.00;5.55;;;11.70;99.90;;;;;;4914445;29;20072;-82
2022/04/13 08:53:44;;;;;;;32.15;5.07;;;11.80;99.90;;;;;;4897451;29;20519;-84
2022/04/13 08:56:15;;;;;;;39.70;6.03;;;11.80;99.90;;;;;;4915673;29;20039;-82
2022/04/13 08:58:52;;;;;;;40.08;6.57;;;11.80;99.90;;;;;;4917531;29;20024;-82
2022/04/13 09:01:29;;;;;;;33.78;6.30;;;11.70;99.90;;;;;;4901372;29;20111;-83
2022/04/13 09:04:00;;;;;;;37.65;6.45;;;11.70;99.90;;;;;;4900935;29;20032;-84
2022/04/13 09:06:28;;;;;;;34.85;5.88;;;11.80;99.90;;;;;;4901379;29;20107;-82
2022/04/13 09:08:58;;;;;;;34.33;5.93;;;11.70;99.90;;;;;;4918407;29;20555;-82
2022/04/13 09:11:26;;;;;;;34.40;6.93;;;11.80;99.90;;;;;;4918818;29;20107;-81
2022/04/13 09:13:52;;;;;;;31.33;7.30;;;11.70;99.90;;;;;;4918328;29;20063;-83
2022/04/13 09:16:18;;;;;;;27.55;6.18;;;11.70;99.90;;;;;;4918007;29;20050;-84
2022/04/13 09:18:45;;;;;;;33.78;5.70;;;11.80;99.90;;;;;;4918603;29;20047;-86
2022/04/13 09:21:18;;;;;;;26.55;5.45;;;11.80;99.90;;;;;;4918745;29;20052;-85
2022/04/13 09:23:44;;;;;;;46.80;6.60;;;11.80;99.90;;;;;;4901695;29;20432;-81
2022/04/13 09:26:10;;;;;;;34.45;6.43;;;11.90;99.90;;;;;;4918373;29;20121;-83
2022/04/13 09:28:37;;;;;;;42.25;7.30;;;11.90;99.90;;;;;;4918728;29;20027;-84
2022/04/13 09:31:03;;;;;;;29.15;6.32;;;11.80;99.90;;;;;;4917990;29;20071;-83
2022/04/13 09:33:29;;;;;;;26.23;5.05;;;11.90;99.90;;;;;;4917268;29;20028;-83
2022/04/13 09:35:55;;;;;;;33.53;6.15;;;11.90;99.90;;;;;;4921626;29;20035;-83
2022/04/13 09:38:21;;;;;;;28.70;6.32;;;11.90;99.90;;;;;;4917682;29;20028;-85
2022/04/13 09:40:50;;;;;;;37.80;5.75;;;12.00;99.90;;;;;;4918620;29;20067;-83
2022/04/13 09:43:18;;;;;;;22.35;5.63;;;12.00;99.90;;;;;;4916921;29;20024;-83
2022/04/13 09:45:48;;;;;;;35.35;5.72;;;11.90;99.90;;;;;;4901576;29;20021;-83
2022/04/13 09:48:15;;;;;;;41.78;5.30;;;11.90;99.90;;;;;;4918244;29;20016;-84
2022/04/13 09:50:43;;;;;;;38.30;5.82;;;12.00;99.90;;;;;;4918309;29;20028;-82
2022/04/13 09:53:10;;;;;;;27.23;4.95;;;11.90;99.90;;;;;;4917842;29;20032;-84
2022/04/13 09:55:41;;;;;;;37.75;6.97;;;11.90;99.90;;;;;;4900981;29;20079;-81
2022/04/13 09:58:09;;;;;;;30.40;5.72;;;12.00;99.90;;;;;;4917606;29;20481;-83
2022/04/13 10:00:36;;;;;;;34.08;6.05;;;11.90;99.90;;;;;;4917495;29;20710;-79
2022/04/13 10:03:22;;;;;;;34.35;7.07;;;11.90;99.90;;;;;;4918472;29;20488;-82
2022/04/13 10:05:52;;;;;;;36.88;6.38;;;11.90;99.90;;;;;;4918324;29;20043;-80
2022/04/13 10:08:23;;;;;;;30.17;6.60;;;11.90;99.90;;;;;;4917298;29;20080;-79
2022/04/13 10:10:53;;;;;;;25.98;5.35;;;11.90;99.90;;;;;;4918364;29;20024;-81
2022/04/13 10:13:40;;;;;;;26.10;5.70;;;11.90;99.90;;;;;;4917062;29;20020;-82
2022/04/13 10:16:11;;;;;;;38.15;6.68;;;12.00;99.90;;;;;;4914246;29;20453;-86
2022/04/13 10:18:56;;;;;;;43.83;6.65;;;12.00;99.90;;;;;;4910453;29;20497;-79
2022/04/13 10:21:40;;;;;;;30.38;7.00;;;12.00;99.90;;;;;;4917996;29;20028;-79
2022/04/13 10:24:08;;;;;;;34.53;6.20;;;11.90;99.90;;;;;;4917917;29;20035;-82
2022/04/13 10:26:34;;;;;;;22.73;6.40;;;12.00;99.90;;;;;;4899921;29;20171;-79
2022/04/13 10:28:59;;;;;;;28.83;6.60;;;11.90;99.90;;;;;;4900097;29;20123;-74
2022/04/13 10:31:25;;;;;;;35.13;6.68;;;11.90;99.90;;;;;;4915998;29;20156;-81
2022/04/13 10:33:55;;;;;;;23.27;5.70;;;11.90;99.90;;;;;;4916361;29;20028;-81
2022/04/13 10:36:21;;;;;;;40.08;7.70;;;11.90;99.90;;;;;;4899752;29;20028;-80
2022/04/13 10:38:47;;;;;;;34.28;6.20;;;11.90;99.90;;;;;;4917266;29;20515;-81
2022/04/13 10:41:17;;;;;;;27.33;5.63;;;11.90;99.90;;;;;;4917539;29;20028;-79
2022/04/13 10:43:48;;;;;;;31.10;6.47;;;11.90;99.90;;;;;;4917061;29;20088;-82
2022/04/13 10:46:19;;;;;;;41.47;6.93;;;12.00;99.90;;;;;;4916544;29;20043;-81
2022/04/13 10:48:47;;;;;;;29.83;7.35;;;12.00;99.90;;;;;;4916669;29;20086;-81
2022/04/13 10:51:18;;;;;;;32.10;5.88;;;12.00;99.90;;;;;;4916495;29;20504;-81
2022/04/13 10:53:50;;;;;;;29.65;6.50;;;12.00;99.90;;;;;;4917083;29;20547;-81
2022/04/13 10:56:20;;;;;;;35.30;5.45;;;12.00;99.90;;;;;;4917045;29;20028;-80
2022/04/13 10:59:07;;;;;;;38.53;5.63;;;12.00;99.90;;;;;;4916620;29;20028;-82
2022/04/13 11:01:41;;;;;;;32.15;7.00;;;12.10;99.90;;;;;;4917612;29;20511;-81
2022/04/13 11:04:09;;;;;;;33.85;6.05;;;12.00;99.90;;;;;;4899759;29;20115;-81
2022/04/13 11:06:36;;;;;;;29.02;5.60;;;12.00;99.90;;;;;;4917346;29;20024;-82
2022/04/13 11:09:08;;;;;;;37.17;6.18;;;12.00;99.90;;;;;;4915615;29;20032;-83
2022/04/13 11:11:37;;;;;;;;;;;12.00;99.90;;;;;;4896257;29;20492;-80
2022/04/13 11:14:23;;;;;;;35.25;6.10;;;12.10;99.90;;;;;;4915718;29;19907;-87
2022/04/13 11:17:13;;;;;;;37.13;6.40;;;12.00;99.90;;;;;;4915948;29;20056;-87
2022/04/13 11:19:41;;;;;;;38.05;6.53;;;12.00;99.90;;;;;;4909775;29;20040;-86
2022/04/13 11:22:06;;;;;;;46.70;6.50;;;12.00;99.90;;;;;;4913776;29;20028;-84
2022/04/13 11:24:58;;;;;;;39.10;6.60;;;12.10;99.90;;;;;;4915803;29;20035;-82
2022/04/13 11:27:25;;;;;;;40.10;7.57;;;12.00;99.90;;;;;;4899696;29;20071;-88
2022/04/13 11:29:56;;;;;;;26.38;6.72;;;12.00;99.90;;;;;;4916273;29;20067;-86
2022/04/13 11:32:31;;;;;;;35.92;6.55;;;12.10;99.90;;;;;;4915531;29;20052;-81
2022/04/13 11:34:57;;;;;;;38.10;7.20;;;12.10;99.90;;;;;;4915900;29;20032;-82
2022/04/13 11:37:42;;;;;;;31.45;6.68;;;12.10;99.90;;;;;;4896034;29;20042;-86
2022/04/13 11:40:12;;;;;;;34.42;6.88;;;12.10;99.90;;;;;;4883247;29;20032;-88
2022/04/13 11:42:40;;;;;;;40.15;6.55;;;12.20;99.90;;;;;;4912387;29;20028;-84
2022/04/13 11:45:08;;;;;;;35.33;7.07;;;12.20;99.90;;;;;;4915855;29;20024;-85
2022/04/13 11:47:41;;;;;;;28.23;6.13;;;12.20;99.90;;;;;;4915445;29;20059;-84
2022/04/13 11:50:13;;;;;;;39.10;7.13;;;12.20;99.90;;;;;;4915957;29;20051;-83
2022/04/13 11:52:39;;;;;;;38.50;9.02;;;12.10;99.90;;;;;;4898986;29;20080;-81
2022/04/13 11:55:18;;;;;;;38.90;6.45;;;12.30;99.90;;;;;;4915939;29;20440;-81
2022/04/13 11:58:01;;;;;;;24.35;6.07;;;12.30;99.90;;;;;;4898746;29;20071;-82
2022/04/13 12:00:59;;;;;;;34.20;7.03;;;12.30;99.90;;;;;;4915676;29;20024;-81
2022/04/13 12:03:32;;;;;;;42.15;6.35;;;12.20;99.90;;;;;;4915572;29;20024;-81
2022/04/13 12:06:03;;;;;;;29.63;6.53;;;12.20;99.90;;;;;;4916287;29;20020;-82
2022/04/13 12:08:37;;;;;;;32.50;5.87;;;12.20;99.90;;;;;;4915917;29;20041;-82
2022/04/13 12:11:08;;;;;;;27.92;6.25;;;12.20;99.90;;;;;;4897485;29;20281;-82
2022/04/13 12:13:54;;;;;;;34.50;5.95;;;12.20;99.90;;;;;;4898907;29;20035;-85
2022/04/13 12:16:28;;;;;;;31.00;6.07;;;12.10;99.90;;;;;;4915839;29;20074;-82
2022/04/13 12:19:01;;;;;;;34.10;6.75;;;12.10;99.90;;;;;;4915522;29;20028;-81
2022/04/13 12:21:30;;;;;;;24.45;6.28;;;12.20;99.90;;;;;;4915212;29;20500;-82
2022/04/13 12:23:56;;;;;;;30.25;5.72;;;12.30;99.90;;;;;;4915766;29;20567;-81
2022/04/13 12:26:39;;;;;;;28.77;6.82;;;12.20;99.90;;;;;;4914679;29;20552;-82
2022/04/13 12:29:12;;;;;;;38.00;5.80;;;12.30;99.90;;;;;;4895521;29;20025;-82
2022/04/13 12:31:45;;;;;;;29.38;5.93;;;12.30;99.90;;;;;;4894787;29;20054;-81
2022/04/13 12:34:14;;;;;;;30.20;6.43;;;12.20;99.90;;;;;;4919379;29;20028;-81
2022/04/13 12:36:40;;;;;;;25.42;6.85;;;12.20;99.90;;;;;;4902654;29;20540;-81
2022/04/13 12:39:09;;;;;;;37.85;8.18;;;12.30;99.90;;;;;;4918280;29;20016;-81
2022/04/13 12:41:35;;;;;;;24.00;5.63;;;12.30;99.90;;;;;;4919069;29;20052;-82